Aneth, Utah
Current Conditions -  °F | °C
As of 3:15 PM on Thursday 23 Oct 2014 (Local Time) from KBDG Reporting Station
Clear Clear  
Wind Chill: 69°   Ceiling: Unl
Heat Index: 69°   Visibility: 10mi
Dew Point: 32°   Wind: 7mph
Humidity: 26%   Direction: 170°S
Pressure: 30.32"   Gusts: NA
Location:  37.22°N, 109.19°W
Report Text: KBDG 232115Z AUTO 17006KT 10SM CLR 20/00 A3032 RMK AO1 T02030000
Loading
Personal Weather Stations






























Interactive Weather Map
Tropical Storm Tracking
New forecast layout! Learn more

10-Day Weather Forecast

Advertisements
Track Severe Weather on mobile